sensor_id;sensor_type;location;lat;lon;timestamp;temperature;humidity
22765;DHT22;11549;50.852;3.816;2023-03-23T00:00:14;13.10;99.90
22765;DHT22;11549;50.852;3.816;2023-03-23T00:02:44;13.10;99.90
22765;DHT22;11549;50.852;3.816;2023-03-23T00:05:11;13.10;99.90
22765;DHT22;11549;50.852;3.816;2023-03-23T00:07:39;13.10;99.90
22765;DHT22;11549;50.852;3.816;2023-03-23T00:10:11;13.10;99.90
22765;DHT22;11549;50.852;3.816;2023-03-23T00:12:38;13.10;99.90
22765;DHT22;11549;50.852;3.816;2023-03-23T00:15:09;13.10;99.90
22765;DHT22;11549;50.852;3.816;2023-03-23T00:17:39;13.10;99.90
22765;DHT22;11549;50.852;3.816;2023-03-23T00:20:08;13.20;99.90
22765;DHT22;11549;50.852;3.816;2023-03-23T00:22:37;13.10;99.90
22765;DHT22;11549;50.852;3.816;2023-03-23T00:25:05;13.20;99.90
22765;DHT22;11549;50.852;3.816;2023-03-23T00:27:34;13.20;99.90
22765;DHT22;11549;50.852;3.816;2023-03-23T00:30:01;13.20;99.90
22765;DHT22;11549;50.852;3.816;2023-03-23T00:32:28;13.10;99.90
22765;DHT22;11549;50.852;3.816;2023-03-23T00:34:57;13.10;99.90
22765;DHT22;11549;50.852;3.816;2023-03-23T00:37:27;13.10;99.90
22765;DHT22;11549;50.852;3.816;2023-03-23T00:39:54;13.10;99.90
22765;DHT22;11549;50.852;3.816;2023-03-23T00:42:23;13.20;99.90
22765;DHT22;11549;50.852;3.816;2023-03-23T00:44:51;13.10;99.90
22765;DHT22;11549;50.852;3.816;2023-03-23T00:47:26;13.10;99.90
22765;DHT22;11549;50.852;3.816;2023-03-23T00:49:53;13.10;99.90
22765;DHT22;11549;50.852;3.816;2023-03-23T00:52:22;13.10;99.90
22765;DHT22;11549;50.852;3.816;2023-03-23T00:54:50;13.10;99.90
22765;DHT22;11549;50.852;3.816;2023-03-23T00:57:18;13.10;99.90
22765;DHT22;11549;50.852;3.816;2023-03-23T00:59:45;13.10;99.90
22765;DHT22;11549;50.852;3.816;2023-03-23T01:02:13;13.10;99.90
22765;DHT22;11549;50.852;3.816;2023-03-23T01:04:40;13.10;99.90
22765;DHT22;11549;50.852;3.816;2023-03-23T01:07:11;13.10;99.90
22765;DHT22;11549;50.852;3.816;2023-03-23T01:09:39;13.10;99.90
22765;DHT22;11549;50.852;3.816;2023-03-23T01:12:12;13.10;99.90
22765;DHT22;11549;50.852;3.816;2023-03-23T01:14:40;13.00;99.90
22765;DHT22;11549;50.852;3.816;2023-03-23T01:17:08;13.00;99.90
22765;DHT22;11549;50.852;3.816;2023-03-23T01:19:35;12.90;99.90
22765;DHT22;11549;50.852;3.816;2023-03-23T01:22:03;13.00;99.90
22765;DHT22;11549;50.852;3.816;2023-03-23T01:24:31;12.90;99.90
22765;DHT22;11549;50.852;3.816;2023-03-23T01:26:58;13.00;99.90
22765;DHT22;11549;50.852;3.816;2023-03-23T01:29:33;13.10;99.90
22765;DHT22;11549;50.852;3.816;2023-03-23T01:32:01;13.10;99.90
22765;DHT22;11549;50.852;3.816;2023-03-23T01:34:28;13.10;99.90
22765;DHT22;11549;50.852;3.816;2023-03-23T01:36:56;13.10;99.90
22765;DHT22;11549;50.852;3.816;2023-03-23T01:39:23;13.10;99.90
22765;DHT22;11549;50.852;3.816;2023-03-23T01:41:52;13.10;99.90
22765;DHT22;11549;50.852;3.816;2023-03-23T01:47:26;13.10;99.90
22765;DHT22;11549;50.852;3.816;2023-03-23T01:49:53;13.00;99.90
22765;DHT22;11549;50.852;3.816;2023-03-23T01:52:23;13.00;99.90
22765;DHT22;11549;50.852;3.816;2023-03-23T01:54:53;13.10;99.90
22765;DHT22;11549;50.852;3.816;2023-03-23T01:57:22;13.10;99.90
22765;DHT22;11549;50.852;3.816;2023-03-23T01:59:54;13.10;99.90
22765;DHT22;11549;50.852;3.816;2023-03-23T02:02:25;13.00;99.90
22765;DHT22;11549;50.852;3.816;2023-03-23T02:04:57;13.10;99.90
22765;DHT22;11549;50.852;3.816;2023-03-23T02:07:26;13.00;99.90
22765;DHT22;11549;50.852;3.816;2023-03-23T02:09:53;13.00;99.90
22765;DHT22;11549;50.852;3.816;2023-03-23T02:12:20;13.00;99.90
22765;DHT22;11549;50.852;3.816;2023-03-23T02:14:48;12.90;99.90
22765;DHT22;11549;50.852;3.816;2023-03-23T02:17:20;13.00;99.90
22765;DHT22;11549;50.852;3.816;2023-03-23T02:20:06;12.90;99.90
22765;DHT22;11549;50.852;3.816;2023-03-23T02:23:07;12.90;99.90
22765;DHT22;11549;50.852;3.816;2023-03-23T02:25:55;12.90;99.90
22765;DHT22;11549;50.852;3.816;2023-03-23T02:28:35;12.90;99.90
22765;DHT22;11549;50.852;3.816;2023-03-23T02:34:11;12.80;99.90
22765;DHT22;11549;50.852;3.816;2023-03-23T02:36:46;12.80;99.90
22765;DHT22;11549;50.852;3.816;2023-03-23T02:39:20;12.80;99.90
22765;DHT22;11549;50.852;3.816;2023-03-23T02:41:51;12.70;99.90
22765;DHT22;11549;50.852;3.816;2023-03-23T02:44:22;12.80;99.90
22765;DHT22;11549;50.852;3.816;2023-03-23T02:46:52;12.80;99.90
22765;DHT22;11549;50.852;3.816;2023-03-23T02:49:23;12.90;99.90
22765;DHT22;11549;50.852;3.816;2023-03-23T02:51:51;12.80;99.90
22765;DHT22;11549;50.852;3.816;2023-03-23T02:54:21;12.80;99.90
22765;DHT22;11549;50.852;3.816;2023-03-23T02:56:52;12.80;99.90
22765;DHT22;11549;50.852;3.816;2023-03-23T02:59:21;12.80;99.90
22765;DHT22;11549;50.852;3.816;2023-03-23T03:02:04;12.80;99.90
22765;DHT22;11549;50.852;3.816;2023-03-23T03:04:33;12.90;99.90
22765;DHT22;11549;50.852;3.816;2023-03-23T03:07:20;12.90;99.90
22765;DHT22;11549;50.852;3.816;2023-03-23T03:09:53;12.90;99.90
22765;DHT22;11549;50.852;3.816;2023-03-23T03:12:33;12.80;99.90
22765;DHT22;11549;50.852;3.816;2023-03-23T03:15:09;12.80;99.90
22765;DHT22;11549;50.852;3.816;2023-03-23T03:17:41;12.80;99.90
22765;DHT22;11549;50.852;3.816;2023-03-23T03:20:14;12.90;99.90
22765;DHT22;11549;50.852;3.816;2023-03-23T03:22:43;12.80;99.90
22765;DHT22;11549;50.852;3.816;2023-03-23T03:25:13;12.80;99.90
22765;DHT22;11549;50.852;3.816;2023-03-23T03:27:43;12.80;99.90
22765;DHT22;11549;50.852;3.816;2023-03-23T03:30:14;12.80;99.90
22765;DHT22;11549;50.852;3.816;2023-03-23T03:32:45;12.80;99.90
22765;DHT22;11549;50.852;3.816;2023-03-23T03:35:18;12.80;99.90
22765;DHT22;11549;50.852;3.816;2023-03-23T03:37:45;12.80;99.90
22765;DHT22;11549;50.852;3.816;2023-03-23T03:40:15;12.80;99.90
22765;DHT22;11549;50.852;3.816;2023-03-23T03:42:44;12.80;99.90
22765;DHT22;11549;50.852;3.816;2023-03-23T03:45:13;12.80;99.90
22765;DHT22;11549;50.852;3.816;2023-03-23T03:47:40;12.80;99.90
22765;DHT22;11549;50.852;3.816;2023-03-23T03:50:08;12.80;99.90
22765;DHT22;11549;50.852;3.816;2023-03-23T03:52:37;12.80;99.90
22765;DHT22;11549;50.852;3.816;2023-03-23T03:55:07;12.80;99.90
22765;DHT22;11549;50.852;3.816;2023-03-23T03:57:37;12.80;99.90
22765;DHT22;11549;50.852;3.816;2023-03-23T04:00:06;12.80;99.90
22765;DHT22;11549;50.852;3.816;2023-03-23T04:02:41;12.80;99.90
22765;DHT22;11549;50.852;3.816;2023-03-23T04:05:09;12.80;99.90
22765;DHT22;11549;50.852;3.816;2023-03-23T04:07:38;12.80;99.90
22765;DHT22;11549;50.852;3.816;2023-03-23T04:10:09;12.80;99.90
22765;DHT22;11549;50.852;3.816;2023-03-23T04:12:38;12.80;99.90
22765;DHT22;11549;50.852;3.816;2023-03-23T04:15:06;12.70;99.90
22765;DHT22;11549;50.852;3.816;2023-03-23T04:17:34;12.70;99.90
22765;DHT22;11549;50.852;3.816;2023-03-23T04:20:03;12.70;99.90
22765;DHT22;11549;50.852;3.816;2023-03-23T04:22:33;12.80;99.90
22765;DHT22;11549;50.852;3.816;2023-03-23T04:25:02;12.70;99.90
22765;DHT22;11549;50.852;3.816;2023-03-23T04:27:32;12.70;99.90
22765;DHT22;11549;50.852;3.816;2023-03-23T04:30:00;12.70;99.90
22765;DHT22;11549;50.852;3.816;2023-03-23T04:32:28;12.60;99.90
22765;DHT22;11549;50.852;3.816;2023-03-23T04:34:57;12.50;99.90
22765;DHT22;11549;50.852;3.816;2023-03-23T04:37:25;12.50;99.90
22765;DHT22;11549;50.852;3.816;2023-03-23T04:39:55;12.40;99.90
22765;DHT22;11549;50.852;3.816;2023-03-23T04:42:28;12.50;99.90
22765;DHT22;11549;50.852;3.816;2023-03-23T04:44:56;12.50;99.90
22765;DHT22;11549;50.852;3.816;2023-03-23T04:47:24;12.50;99.90
22765;DHT22;11549;50.852;3.816;2023-03-23T04:49:55;12.50;99.90
22765;DHT22;11549;50.852;3.816;2023-03-23T04:52:23;12.60;99.90
22765;DHT22;11549;50.852;3.816;2023-03-23T04:54:51;12.50;99.90
22765;DHT22;11549;50.852;3.816;2023-03-23T04:57:19;12.60;99.90
22765;DHT22;11549;50.852;3.816;2023-03-23T04:59:48;12.50;99.90
22765;DHT22;11549;50.852;3.816;2023-03-23T05:02:15;12.50;99.90
22765;DHT22;11549;50.852;3.816;2023-03-23T05:04:43;12.50;99.90
22765;DHT22;11549;50.852;3.816;2023-03-23T05:07:11;12.50;99.90
22765;DHT22;11549;50.852;3.816;2023-03-23T05:09:38;12.50;99.90
22765;DHT22;11549;50.852;3.816;2023-03-23T05:12:08;12.50;99.90
22765;DHT22;11549;50.852;3.816;2023-03-23T05:14:39;12.60;99.90
22765;DHT22;11549;50.852;3.816;2023-03-23T05:17:09;12.60;99.90
22765;DHT22;11549;50.852;3.816;2023-03-23T05:19:36;12.60;99.90
22765;DHT22;11549;50.852;3.816;2023-03-23T05:22:03;12.60;99.90
22765;DHT22;11549;50.852;3.816;2023-03-23T05:24:31;12.60;99.90
22765;DHT22;11549;50.852;3.816;2023-03-23T05:26:59;12.60;99.90
22765;DHT22;11549;50.852;3.816;2023-03-23T05:29:26;12.60;99.90
22765;DHT22;11549;50.852;3.816;2023-03-23T05:31:56;12.60;99.90
22765;DHT22;11549;50.852;3.816;2023-03-23T05:34:27;12.50;99.90
22765;DHT22;11549;50.852;3.816;2023-03-23T05:36:54;12.50;99.90
22765;DHT22;11549;50.852;3.816;2023-03-23T05:39:23;12.50;99.90
22765;DHT22;11549;50.852;3.816;2023-03-23T05:41:50;12.50;99.90
22765;DHT22;11549;50.852;3.816;2023-03-23T05:44:18;12.50;99.90
22765;DHT22;11549;50.852;3.816;2023-03-23T05:46:46;12.50;99.90
22765;DHT22;11549;50.852;3.816;2023-03-23T05:49:14;12.40;99.90
22765;DHT22;11549;50.852;3.816;2023-03-23T05:51:43;12.40;99.90
22765;DHT22;11549;50.852;3.816;2023-03-23T05:54:11;12.40;99.90
22765;DHT22;11549;50.852;3.816;2023-03-23T05:56:39;12.40;99.90
22765;DHT22;11549;50.852;3.816;2023-03-23T05:59:07;12.30;99.90
22765;DHT22;11549;50.852;3.816;2023-03-23T06:01:35;11.90;99.90
22765;DHT22;11549;50.852;3.816;2023-03-23T06:04:02;11.50;99.90
22765;DHT22;11549;50.852;3.816;2023-03-23T06:06:30;11.20;99.90
22765;DHT22;11549;50.852;3.816;2023-03-23T06:08:59;11.00;99.90
22765;DHT22;11549;50.852;3.816;2023-03-23T06:11:26;10.90;99.90
22765;DHT22;11549;50.852;3.816;2023-03-23T06:13:53;10.90;99.90
22765;DHT22;11549;50.852;3.816;2023-03-23T06:16:21;10.70;99.90
22765;DHT22;11549;50.852;3.816;2023-03-23T06:18:49;10.70;99.90
22765;DHT22;11549;50.852;3.816;2023-03-23T06:21:16;10.60;99.90
22765;DHT22;11549;50.852;3.816;2023-03-23T06:23:45;10.60;99.90
22765;DHT22;11549;50.852;3.816;2023-03-23T06:26:16;10.60;99.90
22765;DHT22;11549;50.852;3.816;2023-03-23T06:28:45;10.60;99.90
22765;DHT22;11549;50.852;3.816;2023-03-23T06:31:13;10.50;99.90
22765;DHT22;11549;50.852;3.816;2023-03-23T06:33:40;10.40;99.90
22765;DHT22;11549;50.852;3.816;2023-03-23T06:36:08;10.40;99.90
22765;DHT22;11549;50.852;3.816;2023-03-23T06:38:37;10.40;99.90
22765;DHT22;11549;50.852;3.816;2023-03-23T06:41:05;10.50;99.90
22765;DHT22;11549;50.852;3.816;2023-03-23T06:43:34;10.40;99.90
22765;DHT22;11549;50.852;3.816;2023-03-23T06:46:02;10.40;99.90
22765;DHT22;11549;50.852;3.816;2023-03-23T06:48:29;10.50;99.90
22765;DHT22;11549;50.852;3.816;2023-03-23T06:50:56;10.50;99.90
22765;DHT22;11549;50.852;3.816;2023-03-23T06:53:24;10.50;99.90
22765;DHT22;11549;50.852;3.816;2023-03-23T06:55:51;10.60;99.90
22765;DHT22;11549;50.852;3.816;2023-03-23T06:58:18;10.60;99.90
22765;DHT22;11549;50.852;3.816;2023-03-23T07:00:46;10.70;99.90
22765;DHT22;11549;50.852;3.816;2023-03-23T07:03:13;10.70;99.90
22765;DHT22;11549;50.852;3.816;2023-03-23T07:05:41;10.70;99.90
22765;DHT22;11549;50.852;3.816;2023-03-23T07:08:08;10.80;99.90
22765;DHT22;11549;50.852;3.816;2023-03-23T07:10:35;10.90;99.90
22765;DHT22;11549;50.852;3.816;2023-03-23T07:13:03;11.00;99.90
22765;DHT22;11549;50.852;3.816;2023-03-23T07:15:30;11.10;99.90
22765;DHT22;11549;50.852;3.816;2023-03-23T07:17:59;11.10;99.90
22765;DHT22;11549;50.852;3.816;2023-03-23T07:20:26;11.10;99.90
22765;DHT22;11549;50.852;3.816;2023-03-23T07:22:54;11.20;99.90
22765;DHT22;11549;50.852;3.816;2023-03-23T07:25:21;11.20;99.90
22765;DHT22;11549;50.852;3.816;2023-03-23T07:27:48;11.30;99.90
22765;DHT22;11549;50.852;3.816;2023-03-23T07:30:15;11.30;99.90
22765;DHT22;11549;50.852;3.816;2023-03-23T07:32:43;11.30;99.90
22765;DHT22;11549;50.852;3.816;2023-03-23T07:35:12;11.40;99.90
22765;DHT22;11549;50.852;3.816;2023-03-23T07:37:39;11.30;99.90
22765;DHT22;11549;50.852;3.816;2023-03-23T07:40:08;11.20;99.90
22765;DHT22;11549;50.852;3.816;2023-03-23T07:42:37;11.30;99.90
22765;DHT22;11549;50.852;3.816;2023-03-23T07:45:04;11.30;99.90
22765;DHT22;11549;50.852;3.816;2023-03-23T07:47:32;11.30;99.90
22765;DHT22;11549;50.852;3.816;2023-03-23T07:49:59;11.30;99.90
22765;DHT22;11549;50.852;3.816;2023-03-23T07:52:28;11.30;99.90
22765;DHT22;11549;50.852;3.816;2023-03-23T07:54:56;11.30;99.90
22765;DHT22;11549;50.852;3.816;2023-03-23T07:57:23;11.30;99.90
22765;DHT22;11549;50.852;3.816;2023-03-23T07:59:50;11.30;99.90
22765;DHT22;11549;50.852;3.816;2023-03-23T08:02:17;11.40;99.90
22765;DHT22;11549;50.852;3.816;2023-03-23T08:04:44;11.40;99.90
22765;DHT22;11549;50.852;3.816;2023-03-23T08:07:14;11.30;99.90
22765;DHT22;11549;50.852;3.816;2023-03-23T08:09:43;11.40;99.90
22765;DHT22;11549;50.852;3.816;2023-03-23T08:12:10;11.40;99.90
22765;DHT22;11549;50.852;3.816;2023-03-23T08:14:38;11.40;99.90
22765;DHT22;11549;50.852;3.816;2023-03-23T08:17:07;11.40;99.90
22765;DHT22;11549;50.852;3.816;2023-03-23T08:19:34;11.40;99.90
22765;DHT22;11549;50.852;3.816;2023-03-23T08:22:02;11.40;99.90
22765;DHT22;11549;50.852;3.816;2023-03-23T08:24:30;11.50;99.90
22765;DHT22;11549;50.852;3.816;2023-03-23T08:27:00;11.60;99.90
22765;DHT22;11549;50.852;3.816;2023-03-23T08:29:27;11.70;99.90
22765;DHT22;11549;50.852;3.816;2023-03-23T08:31:54;11.80;99.90
22765;DHT22;11549;50.852;3.816;2023-03-23T08:34:23;11.80;99.90
22765;DHT22;11549;50.852;3.816;2023-03-23T08:36:51;12.00;99.90
22765;DHT22;11549;50.852;3.816;2023-03-23T08:39:18;12.20;99.90
22765;DHT22;11549;50.852;3.816;2023-03-23T08:41:48;12.60;99.90
22765;DHT22;11549;50.852;3.816;2023-03-23T08:44:17;12.90;99.90
22765;DHT22;11549;50.852;3.816;2023-03-23T08:46:44;13.00;99.90
22765;DHT22;11549;50.852;3.816;2023-03-23T08:49:11;13.00;99.90
22765;DHT22;11549;50.852;3.816;2023-03-23T08:51:39;13.10;99.90
22765;DHT22;11549;50.852;3.816;2023-03-23T08:54:06;13.20;99.90
22765;DHT22;11549;50.852;3.816;2023-03-23T08:56:34;13.30;99.90
22765;DHT22;11549;50.852;3.816;2023-03-23T08:59:01;13.50;99.90
22765;DHT22;11549;50.852;3.816;2023-03-23T09:01:30;13.70;99.90
22765;DHT22;11549;50.852;3.816;2023-03-23T09:03:58;13.90;99.90
22765;DHT22;11549;50.852;3.816;2023-03-23T09:06:25;14.20;99.90
22765;DHT22;11549;50.852;3.816;2023-03-23T09:08:53;14.40;99.90
22765;DHT22;11549;50.852;3.816;2023-03-23T09:11:21;14.50;99.90
22765;DHT22;11549;50.852;3.816;2023-03-23T09:13:50;14.60;99.90
22765;DHT22;11549;50.852;3.816;2023-03-23T09:16:18;14.60;99.90
22765;DHT22;11549;50.852;3.816;2023-03-23T09:18:46;14.60;99.90
22765;DHT22;11549;50.852;3.816;2023-03-23T09:21:16;14.50;99.90
22765;DHT22;11549;50.852;3.816;2023-03-23T09:23:43;14.50;99.90
22765;DHT22;11549;50.852;3.816;2023-03-23T09:26:11;14.60;99.90
22765;DHT22;11549;50.852;3.816;2023-03-23T09:28:38;14.90;99.90
22765;DHT22;11549;50.852;3.816;2023-03-23T09:31:06;15.30;99.90
22765;DHT22;11549;50.852;3.816;2023-03-23T09:33:33;15.50;99.90
22765;DHT22;11549;50.852;3.816;2023-03-23T09:36:02;16.00;99.90
22765;DHT22;11549;50.852;3.816;2023-03-23T09:38:31;16.20;99.90
22765;DHT22;11549;50.852;3.816;2023-03-23T09:41:04;16.50;99.90
22765;DHT22;11549;50.852;3.816;2023-03-23T09:43:47;16.70;99.90
22765;DHT22;11549;50.852;3.816;2023-03-23T09:46:27;16.70;99.90
22765;DHT22;11549;50.852;3.816;2023-03-23T09:48:59;16.60;99.90
22765;DHT22;11549;50.852;3.816;2023-03-23T09:51:42;16.40;99.90
22765;DHT22;11549;50.852;3.816;2023-03-23T09:54:16;16.40;99.90
22765;DHT22;11549;50.852;3.816;2023-03-23T09:56:45;16.20;99.90
22765;DHT22;11549;50.852;3.816;2023-03-23T09:59:19;16.10;99.90
22765;DHT22;11549;50.852;3.816;2023-03-23T10:01:49;15.90;99.90
22765;DHT22;11549;50.852;3.816;2023-03-23T10:04:30;15.80;99.90
22765;DHT22;11549;50.852;3.816;2023-03-23T10:07:08;15.80;99.90
22765;DHT22;11549;50.852;3.816;2023-03-23T10:09:36;15.80;99.90
22765;DHT22;11549;50.852;3.816;2023-03-23T10:12:10;15.90;99.90
22765;DHT22;11549;50.852;3.816;2023-03-23T10:17:46;15.80;99.90
22765;DHT22;11549;50.852;3.816;2023-03-23T10:20:36;15.70;99.90
22765;DHT22;11549;50.852;3.816;2023-03-23T10:23:13;15.40;99.90
22765;DHT22;11549;50.852;3.816;2023-03-23T10:25:43;15.20;99.90
22765;DHT22;11549;50.852;3.816;2023-03-23T10:28:15;15.10;99.90
22765;DHT22;11549;50.852;3.816;2023-03-23T10:30:46;15.10;99.90
22765;DHT22;11549;50.852;3.816;2023-03-23T10:33:18;15.00;99.90
22765;DHT22;11549;50.852;3.816;2023-03-23T10:35:50;14.90;99.90
22765;DHT22;11549;50.852;3.816;2023-03-23T10:38:26;15.00;99.90
22765;DHT22;11549;50.852;3.816;2023-03-23T10:40:57;15.00;99.90
22765;DHT22;11549;50.852;3.816;2023-03-23T10:43:26;15.00;99.90
22765;DHT22;11549;50.852;3.816;2023-03-23T10:45:57;14.90;99.90
22765;DHT22;11549;50.852;3.816;2023-03-23T10:48:29;14.90;99.90
22765;DHT22;11549;50.852;3.816;2023-03-23T10:51:00;14.80;99.90
22765;DHT22;11549;50.852;3.816;2023-03-23T10:53:32;14.90;99.90
22765;DHT22;11549;50.852;3.816;2023-03-23T10:56:00;14.90;99.90
22765;DHT22;11549;50.852;3.816;2023-03-23T10:58:29;14.70;99.90
22765;DHT22;11549;50.852;3.816;2023-03-23T11:00:58;14.60;99.90
22765;DHT22;11549;50.852;3.816;2023-03-23T11:03:36;14.50;99.90
22765;DHT22;11549;50.852;3.816;2023-03-23T11:06:06;14.40;99.90
22765;DHT22;11549;50.852;3.816;2023-03-23T11:08:38;14.40;99.90
22765;DHT22;11549;50.852;3.816;2023-03-23T11:11:16;14.40;99.90
22765;DHT22;11549;50.852;3.816;2023-03-23T11:13:46;14.40;99.90
22765;DHT22;11549;50.852;3.816;2023-03-23T11:16:26;14.60;99.90
22765;DHT22;11549;50.852;3.816;2023-03-23T11:18:55;14.60;99.90
22765;DHT22;11549;50.852;3.816;2023-03-23T11:21:23;14.60;99.90
22765;DHT22;11549;50.852;3.816;2023-03-23T11:23:54;14.70;99.90
22765;DHT22;11549;50.852;3.816;2023-03-23T11:26:25;14.80;99.90
22765;DHT22;11549;50.852;3.816;2023-03-23T11:28:57;15.00;99.90
22765;DHT22;11549;50.852;3.816;2023-03-23T11:31:29;15.30;99.90
22765;DHT22;11549;50.852;3.816;2023-03-23T11:33:59;15.40;99.90
22765;DHT22;11549;50.852;3.816;2023-03-23T11:36:32;15.70;99.90
22765;DHT22;11549;50.852;3.816;2023-03-23T11:39:02;15.80;99.90
22765;DHT22;11549;50.852;3.816;2023-03-23T11:41:34;16.10;99.90
22765;DHT22;11549;50.852;3.816;2023-03-23T11:44:10;16.50;99.90
22765;DHT22;11549;50.852;3.816;2023-03-23T11:46:45;16.90;99.90
22765;DHT22;11549;50.852;3.816;2023-03-23T11:49:20;17.30;99.90
22765;DHT22;11549;50.852;3.816;2023-03-23T11:51:51;17.60;99.90
22765;DHT22;11549;50.852;3.816;2023-03-23T11:54:26;17.70;99.90
22765;DHT22;11549;50.852;3.816;2023-03-23T11:56:55;17.60;99.90
22765;DHT22;11549;50.852;3.816;2023-03-23T11:59:28;17.40;99.90
22765;DHT22;11549;50.852;3.816;2023-03-23T12:02:04;17.40;99.90
22765;DHT22;11549;50.852;3.816;2023-03-23T12:04:57;17.50;99.90
22765;DHT22;11549;50.852;3.816;2023-03-23T12:07:48;17.60;99.90
22765;DHT22;11549;50.852;3.816;2023-03-23T12:10:26;17.70;99.90
22765;DHT22;11549;50.852;3.816;2023-03-23T12:13:03;17.80;99.90
22765;DHT22;11549;50.852;3.816;2023-03-23T12:15:40;17.80;99.90
22765;DHT22;11549;50.852;3.816;2023-03-23T12:18:17;17.90;99.90
22765;DHT22;11549;50.852;3.816;2023-03-23T12:20:56;18.00;99.90
22765;DHT22;11549;50.852;3.816;2023-03-23T12:23:25;18.00;99.90
22765;DHT22;11549;50.852;3.816;2023-03-23T12:26:19;18.00;99.90
22765;DHT22;11549;50.852;3.816;2023-03-23T12:29:06;18.30;99.90
22765;DHT22;11549;50.852;3.816;2023-03-23T12:31:40;18.10;99.90
22765;DHT22;11549;50.852;3.816;2023-03-23T12:34:18;18.10;99.90
22765;DHT22;11549;50.852;3.816;2023-03-23T12:36:58;18.00;99.90
22765;DHT22;11549;50.852;3.816;2023-03-23T12:42:41;17.40;99.90
22765;DHT22;11549;50.852;3.816;2023-03-23T12:45:19;17.20;99.90
22765;DHT22;11549;50.852;3.816;2023-03-23T12:47:53;17.00;99.90
22765;DHT22;11549;50.852;3.816;2023-03-23T12:50:28;16.80;99.90
22765;DHT22;11549;50.852;3.816;2023-03-23T12:52:59;16.70;99.90
22765;DHT22;11549;50.852;3.816;2023-03-23T12:55:34;16.60;99.90
22765;DHT22;11549;50.852;3.816;2023-03-23T12:58:07;16.60;99.90
22765;DHT22;11549;50.852;3.816;2023-03-23T13:00:48;16.70;99.90
22765;DHT22;11549;50.852;3.816;2023-03-23T13:03:22;16.80;99.90
22765;DHT22;11549;50.852;3.816;2023-03-23T13:05:54;17.20;99.90
22765;DHT22;11549;50.852;3.816;2023-03-23T13:08:27;17.60;99.90
22765;DHT22;11549;50.852;3.816;2023-03-23T13:11:01;17.80;99.90
22765;DHT22;11549;50.852;3.816;2023-03-23T13:13:45;17.70;99.90
22765;DHT22;11549;50.852;3.816;2023-03-23T13:16:22;17.80;99.90
22765;DHT22;11549;50.852;3.816;2023-03-23T13:19:00;18.00;99.90
22765;DHT22;11549;50.852;3.816;2023-03-23T13:21:30;18.00;99.90
22765;DHT22;11549;50.852;3.816;2023-03-23T13:24:00;17.90;99.90
22765;DHT22;11549;50.852;3.816;2023-03-23T13:26:30;17.60;99.90
22765;DHT22;11549;50.852;3.816;2023-03-23T13:29:00;17.50;99.90
22765;DHT22;11549;50.852;3.816;2023-03-23T13:31:31;17.40;99.90
22765;DHT22;11549;50.852;3.816;2023-03-23T13:34:04;17.10;99.90
22765;DHT22;11549;50.852;3.816;2023-03-23T13:36:35;16.90;99.90
22765;DHT22;11549;50.852;3.816;2023-03-23T13:39:04;16.90;99.90
22765;DHT22;11549;50.852;3.816;2023-03-23T13:41:34;17.00;99.90
22765;DHT22;11549;50.852;3.816;2023-03-23T13:44:23;17.00;99.90
22765;DHT22;11549;50.852;3.816;2023-03-23T13:47:04;17.20;99.90
22765;DHT22;11549;50.852;3.816;2023-03-23T13:49:32;17.50;99.90
22765;DHT22;11549;50.852;3.816;2023-03-23T13:52:17;17.80;99.90
22765;DHT22;11549;50.852;3.816;2023-03-23T13:54:49;18.00;99.90
22765;DHT22;11549;50.852;3.816;2023-03-23T13:57:33;18.10;99.90
22765;DHT22;11549;50.852;3.816;2023-03-23T14:00:26;18.30;99.90
22765;DHT22;11549;50.852;3.816;2023-03-23T14:03:00;18.40;99.90
22765;DHT22;11549;50.852;3.816;2023-03-23T14:05:35;18.50;99.90
22765;DHT22;11549;50.852;3.816;2023-03-23T14:08:10;18.40;99.90
22765;DHT22;11549;50.852;3.816;2023-03-23T14:10:42;18.30;99.90
22765;DHT22;11549;50.852;3.816;2023-03-23T14:13:16;18.40;99.90
22765;DHT22;11549;50.852;3.816;2023-03-23T14:15:57;18.30;99.90
22765;DHT22;11549;50.852;3.816;2023-03-23T14:18:29;18.20;99.90
22765;DHT22;11549;50.852;3.816;2023-03-23T14:20:57;18.00;99.90
22765;DHT22;11549;50.852;3.816;2023-03-23T14:23:24;17.80;99.90
22765;DHT22;11549;50.852;3.816;2023-03-23T14:25:56;17.50;99.90
22765;DHT22;11549;50.852;3.816;2023-03-23T14:28:31;17.20;99.90
22765;DHT22;11549;50.852;3.816;2023-03-23T14:31:01;16.80;99.90
22765;DHT22;11549;50.852;3.816;2023-03-23T14:33:28;16.60;99.90
22765;DHT22;11549;50.852;3.816;2023-03-23T14:35:58;16.60;99.90
22765;DHT22;11549;50.852;3.816;2023-03-23T14:38:26;16.60;99.90
22765;DHT22;11549;50.852;3.816;2023-03-23T14:41:01;16.70;99.90
22765;DHT22;11549;50.852;3.816;2023-03-23T14:43:29;16.70;99.90
22765;DHT22;11549;50.852;3.816;2023-03-23T14:46:00;16.60;99.90
22765;DHT22;11549;50.852;3.816;2023-03-23T14:48:29;16.80;99.90
22765;DHT22;11549;50.852;3.816;2023-03-23T14:50:58;16.90;99.90
22765;DHT22;11549;50.852;3.816;2023-03-23T14:53:32;16.80;99.90
22765;DHT22;11549;50.852;3.816;2023-03-23T14:56:01;16.80;99.90
22765;DHT22;11549;50.852;3.816;2023-03-23T14:58:32;16.60;99.90
22765;DHT22;11549;50.852;3.816;2023-03-23T15:01:04;16.50;99.90
22765;DHT22;11549;50.852;3.816;2023-03-23T15:03:35;16.40;99.90
22765;DHT22;11549;50.852;3.816;2023-03-23T15:06:06;16.40;99.90
22765;DHT22;11549;50.852;3.816;2023-03-23T15:08:37;16.40;99.90
22765;DHT22;11549;50.852;3.816;2023-03-23T15:11:07;16.50;99.90
22765;DHT22;11549;50.852;3.816;2023-03-23T15:13:36;16.60;99.90
22765;DHT22;11549;50.852;3.816;2023-03-23T15:16:11;16.70;99.90
22765;DHT22;11549;50.852;3.816;2023-03-23T15:18:40;16.80;99.90
22765;DHT22;11549;50.852;3.816;2023-03-23T15:21:09;16.70;99.90
22765;DHT22;11549;50.852;3.816;2023-03-23T15:23:42;16.70;99.90
22765;DHT22;11549;50.852;3.816;2023-03-23T15:26:29;16.60;99.90
22765;DHT22;11549;50.852;3.816;2023-03-23T15:29:11;16.60;99.90
22765;DHT22;11549;50.852;3.816;2023-03-23T15:31:43;16.40;99.90
22765;DHT22;11549;50.852;3.816;2023-03-23T15:34:20;16.10;99.90
22765;DHT22;11549;50.852;3.816;2023-03-23T15:37:00;15.80;99.90
22765;DHT22;11549;50.852;3.816;2023-03-23T15:39:28;15.60;99.90
22765;DHT22;11549;50.852;3.816;2023-03-23T15:41:57;15.40;99.90
22765;DHT22;11549;50.852;3.816;2023-03-23T15:44:28;15.40;99.90
22765;DHT22;11549;50.852;3.816;2023-03-23T15:47:14;15.60;99.90
22765;DHT22;11549;50.852;3.816;2023-03-23T15:49:43;15.60;99.90
22765;DHT22;11549;50.852;3.816;2023-03-23T15:52:12;15.70;99.90
22765;DHT22;11549;50.852;3.816;2023-03-23T15:54:46;15.70;99.90
22765;DHT22;11549;50.852;3.816;2023-03-23T15:57:14;15.80;99.90
22765;DHT22;11549;50.852;3.816;2023-03-23T15:59:41;15.80;99.90
22765;DHT22;11549;50.852;3.816;2023-03-23T16:02:18;15.80;99.90
22765;DHT22;11549;50.852;3.816;2023-03-23T16:04:49;15.80;99.90